Time;durP1;ratioP1;P1;durP2;ratioP2;P2;SDS_P1;SDS_P2;PMS_P1;PMS_P2;Temp;Humidity;BMP_temperature;BMP_pressure;BME280_temperature;BME280_humidity;BME280_pressure;Samples;Min_cycle;Max_cycle;Signal;HPM_P1;HPM_P2
2023/12/24 00:02:04;;;;;;;1.00;0.60;;;;;;;0.35;100.00;98463.73;104971;1257;66011;-62
2023/12/24 00:04:31;;;;;;;2.30;0.50;;;;;;;0.34;100.00;98463.92;104855;1257;72698;-61
2023/12/24 00:06:58;;;;;;;1.10;0.60;;;;;;;0.36;100.00;98464.76;104824;1255;60580;-63
2023/12/24 00:09:26;;;;;;;0.70;0.40;;;;;;;0.37;100.00;98468.27;104967;1258;60470;-64
2023/12/24 00:11:53;;;;;;;3.70;0.60;;;;;;;0.40;100.00;98473.51;104866;1258;74398;-64
2023/12/24 00:14:20;;;;;;;2.30;0.60;;;;;;;0.42;100.00;98477.51;104854;1258;66094;-63
2023/12/24 00:16:48;;;;;;;2.30;0.60;;;;;;;0.41;100.00;98478.41;104963;1265;74752;-66
2023/12/24 00:19:15;;;;;;;2.90;0.70;;;;;;;0.40;100.00;98474.38;105072;1259;61009;-61
2023/12/24 00:21:42;;;;;;;4.20;0.70;;;;;;;0.37;100.00;98479.05;105003;1258;60548;-64
2023/12/24 00:24:10;;;;;;;2.00;0.90;;;;;;;0.33;100.00;98473.14;105212;1259;72299;-62
2023/12/24 00:26:39;;;;;;;2.00;0.60;;;;;;;0.30;100.00;98476.77;104924;1261;66112;-62
2023/12/24 00:29:06;;;;;;;1.50;0.50;;;;;;;0.26;100.00;98477.03;104769;1257;71406;-64
2023/12/24 00:31:34;;;;;;;1.00;0.40;;;;;;;0.25;100.00;98479.73;105250;1254;60947;-63
2023/12/24 00:34:01;;;;;;;2.20;0.40;;;;;;;0.25;100.00;98482.74;104946;1255;60533;-63
2023/12/24 00:36:29;;;;;;;0.70;0.30;;;;;;;0.26;100.00;98484.29;105195;1260;72191;-64
2023/12/24 00:38:56;;;;;;;1.10;0.50;;;;;;;0.29;100.00;98485.43;104830;1256;67004;-62
2023/12/24 00:41:23;;;;;;;1.40;0.60;;;;;;;0.33;100.00;98490.98;105010;1254;72473;-60
2023/12/24 00:43:51;;;;;;;2.10;0.50;;;;;;;0.37;100.00;98498.45;106018;1253;60424;-60
2023/12/24 00:46:18;;;;;;;1.90;0.60;;;;;;;0.38;100.00;98498.08;104996;1257;60617;-61
2023/12/24 00:48:46;;;;;;;2.00;0.60;;;;;;;0.37;100.00;98498.08;104768;1257;73871;-61
2023/12/24 00:51:13;;;;;;;1.50;0.60;;;;;;;0.34;100.00;98499.59;104922;1259;65752;-65
2023/12/24 00:53:40;;;;;;;2.60;0.60;;;;;;;0.31;100.00;98501.63;104930;1259;71467;-66
2023/12/24 00:56:08;;;;;;;1.50;0.50;;;;;;;0.26;100.00;98504.93;104829;1257;60522;-62
2023/12/24 00:58:35;;;;;;;3.10;0.70;;;;;;;0.21;100.00;98501.36;105013;1259;60421;-64
2023/12/24 01:01:03;;;;;;;2.00;0.50;;;;;;;0.17;100.00;98498.63;104894;1259;72653;-64
2023/12/24 01:03:31;;;;;;;1.80;0.40;;;;;;;0.16;100.00;98500.80;104993;1258;66031;-60
2023/12/24 01:05:59;;;;;;;1.60;0.50;;;;;;;0.15;100.00;98499.94;104996;1253;71394;-61
2023/12/24 01:08:27;;;;;;;1.50;0.40;;;;;;;0.16;100.00;98502.92;104964;1254;60734;-63
2023/12/24 01:10:54;;;;;;;1.90;0.80;;;;;;;0.19;100.00;98501.77;105031;1257;60454;-61
2023/12/24 01:13:21;;;;;;;2.30;0.60;;;;;;;0.24;100.00;98503.25;104860;1257;74417;-64
2023/12/24 01:15:49;;;;;;;3.70;0.60;;;;;;;0.27;100.00;98506.13;104929;1259;66743;-61
2023/12/24 01:18:16;;;;;;;1.50;0.60;;;;;;;0.29;100.00;98512.41;104854;1259;72713;-66
2023/12/24 01:20:44;;;;;;;1.30;0.80;;;;;;;0.30;100.00;98508.89;104971;1259;60534;-62
2023/12/24 01:23:12;;;;;;;1.40;0.70;;;;;;;0.30;100.00;98511.71;104821;1254;60484;-61
2023/12/24 01:25:39;;;;;;;1.50;0.60;;;;;;;0.27;100.00;98516.19;104869;1259;146748;-63
2023/12/24 01:28:49;;;;;;;2.50;0.70;;;;;;;0.23;100.00;98577.17;101644;1297;602947;-52
2023/12/24 01:31:17;;;;;;;2.00;0.60;;;;;;;0.21;100.00;98613.91;103836;1268;59367;-53
2023/12/24 01:33:44;;;;;;;1.10;0.60;;;;;;;0.21;100.00;98598.05;103717;1267;59432;-53
2023/12/24 01:36:11;;;;;;;2.30;0.70;;;;;;;0.23;100.00;98595.36;104332;1261;72325;-53
2023/12/24 01:38:39;;;;;;;1.20;0.60;;;;;;;0.25;100.00;98591.92;104327;1261;66980;-53
2023/12/24 01:41:06;;;;;;;2.90;0.80;;;;;;;0.29;100.00;98586.55;104669;1266;72714;-52
2023/12/24 01:43:33;;;;;;;3.10;0.70;;;;;;;0.32;100.00;98588.23;104343;1258;120145;-53
2023/12/24 01:46:02;;;;;;;2.00;0.70;;;;;;;0.34;100.00;98584.30;104343;1257;60578;-53
2023/12/24 01:48:29;;;;;;;2.10;0.80;;;;;;;0.34;100.00;98585.53;105872;1263;71059;-53
2023/12/24 01:50:57;;;;;;;1.80;0.70;;;;;;;0.32;100.00;98591.42;104329;1259;66867;-53
2023/12/24 01:53:24;;;;;;;1.30;0.70;;;;;;;0.31;100.00;98592.33;104610;1263;72776;-53
2023/12/24 01:55:51;;;;;;;2.30;0.60;;;;;;;0.29;100.00;98594.13;104374;1259;59649;-53
2023/12/24 01:58:19;;;;;;;2.40;0.70;;;;;;;0.26;100.00;98597.72;104414;1257;59640;-53
2023/12/24 02:00:47;;;;;;;2.10;1.30;;;;;;;0.25;100.00;98595.13;104313;1263;71885;-54
2023/12/24 02:03:15;;;;;;;5.00;1.00;;;;;;;0.23;100.00;98593.77;104494;1262;65499;-53
2023/12/24 02:05:44;;;;;;;1.30;0.50;;;;;;;0.24;100.00;98596.58;108443;1266;71503;-53
2023/12/24 02:08:12;;;;;;;1.70;0.50;;;;;;;0.26;100.00;98598.27;108501;1261;59657;-53
2023/12/24 02:10:40;;;;;;;3.20;0.60;;;;;;;0.31;100.00;98602.38;108440;1260;60535;-53
2023/12/24 02:13:08;;;;;;;1.00;0.40;;;;;;;0.35;100.00;98601.20;108636;1264;73108;-54
2023/12/24 02:15:35;;;;;;;1.60;0.60;;;;;;;0.39;100.00;98602.70;108862;1258;65784;-53
2023/12/24 02:18:04;;;;;;;1.70;0.60;;;;;;;0.42;100.00;98606.49;108697;1258;73288;-54
2023/12/24 02:20:32;;;;;;;0.90;0.50;;;;;;;0.44;100.00;98614.38;108694;1260;57981;-54
2023/12/24 02:22:59;;;;;;;1.50;0.50;;;;;;;0.43;100.00;98616.71;108789;1254;60021;-54
2023/12/24 02:25:26;;;;;;;1.20;0.60;;;;;;;0.41;100.00;98616.42;108846;1254;74073;-54
2023/12/24 02:28:04;;;;;;;2.40;0.70;;;;;;;0.38;100.00;98610.84;108742;1260;66022;-53
2023/12/24 02:30:36;;;;;;;2.50;0.70;;;;;;;0.34;100.00;98613.77;108879;1254;71707;-54
2023/12/24 02:33:04;;;;;;;2.90;0.60;;;;;;;0.31;100.00;98603.27;108843;1257;58459;-53
2023/12/24 02:35:32;;;;;;;1.10;0.50;;;;;;;0.28;100.00;98607.03;108906;1254;60083;-54
2023/12/24 02:38:00;;;;;;;1.70;0.50;;;;;;;0.26;100.00;98605.66;108751;1254;73137;-54
2023/12/24 02:40:27;;;;;;;1.30;0.50;;;;;;;0.27;100.00;98612.34;107286;1260;65683;-54
2023/12/24 02:42:55;;;;;;;2.60;0.60;;;;;;;0.29;100.00;98617.23;104662;1257;72711;-53
2023/12/24 02:45:22;;;;;;;3.90;0.70;;;;;;;0.33;100.00;98614.69;104541;1260;61576;-54
2023/12/24 02:47:50;;;;;;;2.00;0.60;;;;;;;0.37;100.00;98620.03;104504;1261;60069;-54
2023/12/24 02:50:19;;;;;;;1.70;0.60;;;;;;;0.39;100.00;98621.58;104766;1257;71866;-54
2023/12/24 02:52:47;;;;;;;1.80;0.70;;;;;;;0.40;100.00;98622.45;106776;1257;65851;-53
2023/12/24 02:55:14;;;;;;;2.10;0.70;;;;;;;0.40;100.00;98627.57;106630;1260;72809;-53
2023/12/24 02:57:41;;;;;;;1.30;0.70;;;;;;;0.38;100.00;98631.50;104760;1257;59606;-53
2023/12/24 03:00:09;;;;;;;2.50;0.60;;;;;;;0.34;100.00;98629.11;104736;1258;59743;-54
2023/12/24 03:02:39;;;;;;;2.50;0.70;;;;;;;0.29;100.00;98623.95;107051;1257;73064;-54
2023/12/24 03:05:07;;;;;;;4.10;0.60;;;;;;;0.24;100.00;98622.49;107000;1257;65959;-54
2023/12/24 03:07:34;;;;;;;1.40;0.60;;;;;;;0.19;100.00;98625.09;104259;1261;72934;-54
2023/12/24 03:10:02;;;;;;;1.50;0.50;;;;;;;0.15;100.00;98627.14;104485;1256;59961;-53
2023/12/24 03:12:29;;;;;;;2.10;0.50;;;;;;;0.14;100.00;98630.33;105992;1258;59244;-55
2023/12/24 03:14:57;;;;;;;1.60;0.50;;;;;;;0.15;100.00;98635.24;104559;1263;71854;-55
2023/12/24 03:17:25;;;;;;;2.30;0.50;;;;;;;0.17;100.00;98638.90;104967;1261;67402;-54
2023/12/24 03:19:52;;;;;;;1.50;0.80;;;;;;;0.18;100.00;98642.03;104968;1261;71215;-55
2023/12/24 03:22:22;;;;;;;3.20;0.50;;;;;;;0.19;100.00;98641.83;104659;1257;59638;-54
2023/12/24 03:24:49;;;;;;;0.90;0.60;;;;;;;0.19;100.00;98651.54;105036;1257;59649;-54
2023/12/24 03:27:18;;;;;;;1.60;0.60;;;;;;;0.18;100.00;98646.26;104696;1255;73701;-55
2023/12/24 03:29:45;;;;;;;2.10;0.60;;;;;;;0.17;100.00;98644.73;104565;1260;67684;-54
2023/12/24 03:32:12;;;;;;;2.40;0.50;;;;;;;0.14;100.00;98645.50;104677;1259;74824;-55
2023/12/24 03:34:40;;;;;;;2.20;1.10;;;;;;;0.09;100.00;98651.09;104667;1258;59920;-53
2023/12/24 03:37:08;;;;;;;3.30;0.60;;;;;;;0.03;100.00;98651.23;105008;1260;62624;-55
2023/12/24 03:39:35;;;;;;;0.90;0.50;;;;;;;0.00;100.00;98651.98;104660;1259;73088;-55
2023/12/24 03:42:02;;;;;;;1.30;0.60;;;;;;;-0.02;100.00;98649.59;104864;1257;67146;-55
2023/12/24 03:44:30;;;;;;;3.30;0.50;;;;;;;-0.01;100.00;98652.92;104716;1258;72439;-55
2023/12/24 03:46:57;;;;;;;2.70;0.50;;;;;;;0.01;100.00;98652.68;104613;1257;59634;-55
2023/12/24 03:49:24;;;;;;;1.80;0.60;;;;;;;0.03;100.00;98658.80;104728;1262;59670;-55
2023/12/24 03:51:52;;;;;;;1.40;0.60;;;;;;;0.04;100.00;98656.14;104878;1257;71104;-55
2023/12/24 03:54:21;;;;;;;1.60;0.50;;;;;;;0.06;100.00;98657.52;104482;1257;66132;-55
2023/12/24 03:56:49;;;;;;;1.20;0.50;;;;;;;0.06;100.00;98663.87;105513;1258;73252;-55
2023/12/24 03:59:17;;;;;;;1.60;0.50;;;;;;;0.03;100.00;98666.59;104544;1265;59777;-55
2023/12/24 04:01:44;;;;;;;2.40;0.50;;;;;;;0.00;100.00;98669.12;104604;1257;60612;-54
2023/12/24 04:04:11;;;;;;;1.30;0.50;;;;;;;-0.02;100.00;98668.29;104510;1260;75585;-53
2023/12/24 04:06:39;;;;;;;1.00;0.50;;;;;;;-0.05;100.00;98669.76;104711;1256;65764;-54
2023/12/24 04:09:09;;;;;;;1.30;0.60;;;;;;;-0.07;100.00;98665.20;105911;1256;71127;-54
2023/12/24 04:11:36;;;;;;;1.10;0.60;;;;;;;-0.07;100.00;98663.45;104940;1260;59811;-53
2023/12/24 04:14:04;;;;;;;1.60;0.50;;;;;;;-0.07;100.00;98661.85;105487;1257;59913;-54
2023/12/24 04:16:31;;;;;;;1.40;0.60;;;;;;;-0.06;100.00;98664.30;104647;1258;70882;-54
2023/12/24 04:18:59;;;;;;;1.00;0.60;;;;;;;-0.02;100.00;98671.63;104613;1257;66006;-54
2023/12/24 04:21:27;;;;;;;1.80;0.60;;;;;;;0.02;100.00;98676.82;105514;1257;71409;-54
2023/12/24 04:23:55;;;;;;;1.80;0.60;;;;;;;0.05;100.00;98681.17;104562;1260;60968;-56
2023/12/24 04:26:22;;;;;;;1.60;0.50;;;;;;;0.07;100.00;98687.66;104325;1257;60981;-55
2023/12/24 04:28:50;;;;;;;2.90;0.60;;;;;;;0.07;100.00;98686.25;104565;1257;72699;-55
2023/12/24 04:31:17;;;;;;;1.60;0.50;;;;;;;0.05;100.00;98687.70;104660;1257;67031;-53
2023/12/24 04:33:44;;;;;;;1.30;0.50;;;;;;;0.02;100.00;98684.77;104443;1260;72697;-55
2023/12/24 04:36:21;;;;;;;1.00;0.50;;;;;;;-0.02;100.00;98686.27;104566;1256;59639;-54
2023/12/24 04:38:49;;;;;;;1.80;0.50;;;;;;;-0.05;100.00;98686.87;104809;1254;60529;-55
2023/12/24 04:41:19;;;;;;;1.60;0.60;;;;;;;-0.05;100.00;98685.11;104652;1260;71872;-55
2023/12/24 04:43:47;;;;;;;2.30;0.50;;;;;;;-0.03;100.00;98690.00;104596;1257;65885;-55
2023/12/24 04:46:15;;;;;;;1.60;0.50;;;;;;;-0.01;100.00;98688.89;105075;1257;72753;-55
2023/12/24 04:48:42;;;;;;;1.90;0.60;;;;;;;0.04;100.00;98690.55;104408;1263;59647;-55
2023/12/24 04:51:10;;;;;;;2.30;0.50;;;;;;;0.09;100.00;98690.77;104433;1260;59624;-55
2023/12/24 04:53:37;;;;;;;1.40;0.60;;;;;;;0.11;100.00;98695.50;104653;1261;73111;-56
2023/12/24 04:56:05;;;;;;;1.60;0.50;;;;;;;0.11;100.00;98697.08;104573;1262;69262;-55
2023/12/24 04:58:33;;;;;;;1.90;0.60;;;;;;;0.10;100.00;98695.33;108663;1257;71823;-56
2023/12/24 05:01:01;;;;;;;1.60;0.50;;;;;;;0.09;100.00;98694.11;108647;1257;58163;-56
2023/12/24 05:03:28;;;;;;;2.30;0.60;;;;;;;0.06;100.00;98700.02;108836;1254;58802;-56
2023/12/24 05:05:56;;;;;;;3.90;1.10;;;;;;;0.05;100.00;98706.41;108709;1256;73126;-55
2023/12/24 05:08:23;;;;;;;1.80;0.60;;;;;;;0.04;100.00;98708.54;108730;1255;65519;-55
2023/12/24 05:10:53;;;;;;;2.30;0.50;;;;;;;0.03;100.00;98713.84;108788;1256;76858;-55
2023/12/24 05:13:21;;;;;;;3.90;0.70;;;;;;;0.04;100.00;98718.95;108821;1256;59687;-56
2023/12/24 05:15:48;;;;;;;4.10;0.60;;;;;;;0.07;100.00;98718.71;108813;1256;60507;-56
2023/12/24 05:18:16;;;;;;;2.00;0.50;;;;;;;0.09;100.00;98721.47;108821;1256;73340;-56
2023/12/24 05:20:43;;;;;;;1.70;0.60;;;;;;;0.12;100.00;98722.64;108785;1255;67045;-56
2023/12/24 05:23:12;;;;;;;0.90;0.60;;;;;;;0.13;100.00;98723.50;108581;1257;72767;-56
2023/12/24 05:25:39;;;;;;;2.90;0.60;;;;;;;0.15;100.00;98729.11;108857;1255;58764;-55
2023/12/24 05:28:06;;;;;;;1.80;0.60;;;;;;;0.14;100.00;98734.60;108916;1256;61655;-55
2023/12/24 05:30:34;;;;;;;2.40;0.60;;;;;;;0.13;100.00;98734.61;108820;1258;73234;-56
2023/12/24 05:33:01;;;;;;;3.80;0.90;;;;;;;0.12;100.00;98734.98;108910;1255;67059;-55
2023/12/24 05:35:29;;;;;;;1.50;0.60;;;;;;;0.10;100.00;98737.66;108439;1260;72414;-55
2023/12/24 05:37:56;;;;;;;3.00;0.60;;;;;;;0.09;100.00;98738.23;104554;1256;60614;-59
2023/12/24 05:40:24;;;;;;;2.10;0.50;;;;;;;0.08;100.00;98741.44;104642;1260;60428;-55
2023/12/24 05:42:51;;;;;;;3.40;0.60;;;;;;;0.10;100.00;98742.79;104617;1261;72885;-55
2023/12/24 05:45:19;;;;;;;3.20;0.70;;;;;;;0.12;100.00;98750.51;104734;1256;65657;-55
2023/12/24 05:47:46;;;;;;;1.40;0.90;;;;;;;0.14;100.00;98754.35;104481;1256;74851;-55
2023/12/24 05:50:14;;;;;;;1.90;0.70;;;;;;;0.16;100.00;98756.96;104660;1260;60550;-55
2023/12/24 05:52:42;;;;;;;3.00;0.80;;;;;;;0.17;100.00;98755.70;104746;1261;61310;-56
2023/12/24 05:55:10;;;;;;;2.60;0.70;;;;;;;0.17;100.00;98753.92;105486;1256;76338;-53
2023/12/24 05:57:38;;;;;;;2.50;0.60;;;;;;;0.16;100.00;98761.55;104848;1257;69198;-53
2023/12/24 06:00:06;;;;;;;3.10;0.60;;;;;;;0.14;100.00;98762.83;105001;1257;73596;-53
2023/12/24 06:02:45;;;;;;;1.90;0.80;;;;;;;0.11;100.00;98765.87;108237;1256;61859;-53
2023/12/24 06:05:14;;;;;;;2.50;0.70;;;;;;;0.08;100.00;98764.19;107254;1256;60816;-53
2023/12/24 06:07:42;;;;;;;4.80;1.00;;;;;;;0.05;100.00;98761.61;104827;1254;76328;-54
2023/12/24 06:10:11;;;;;;;2.90;0.80;;;;;;;0.04;100.00;98762.34;106158;1257;69568;-54
2023/12/24 06:12:39;;;;;;;5.60;1.00;;;;;;;0.02;100.00;98769.77;104745;1260;73506;-54
2023/12/24 06:15:07;;;;;;;1.70;0.70;;;;;;;0.02;100.00;98773.65;104784;1263;61012;-55
2023/12/24 06:17:35;;;;;;;1.70;0.90;;;;;;;0.04;100.00;98783.84;105046;1259;61281;-54
2023/12/24 06:20:05;;;;;;;2.50;0.80;;;;;;;0.08;100.00;98789.07;104907;1260;76140;-53
2023/12/24 06:22:34;;;;;;;3.80;0.80;;;;;;;0.11;100.00;98796.92;105293;1256;65635;-54
2023/12/24 06:25:03;;;;;;;4.10;1.00;;;;;;;0.12;100.00;98795.84;105576;1260;75222;-53
2023/12/24 06:27:30;;;;;;;5.90;1.20;;;;;;;0.13;100.00;98794.59;105729;1257;60546;-55
2023/12/24 06:29:58;;;;;;;3.10;0.90;;;;;;;0.13;100.00;98794.95;104828;1257;63369;-53
2023/12/24 06:32:27;;;;;;;2.90;1.10;;;;;;;0.13;100.00;98800.06;104822;1256;72526;-55
2023/12/24 06:34:55;;;;;;;4.60;1.00;;;;;;;0.12;100.00;98806.43;105149;1260;69027;-54
2023/12/24 06:37:23;;;;;;;2.50;1.10;;;;;;;0.11;100.00;98808.73;105446;1259;75390;-54
2023/12/24 06:39:51;;;;;;;2.00;0.80;;;;;;;0.10;100.00;98811.93;104805;1257;63201;-53
2023/12/24 06:42:19;;;;;;;2.90;0.80;;;;;;;0.10;100.00;98814.75;104971;1260;60516;-54
2023/12/24 06:44:47;;;;;;;3.60;1.00;;;;;;;0.11;100.00;98819.52;104916;1256;72205;-54
2023/12/24 06:47:15;;;;;;;2.80;0.80;;;;;;;0.13;100.00;98821.23;105607;1256;67858;-54
2023/12/24 06:49:44;;;;;;;3.00;0.80;;;;;;;0.17;100.00;98820.78;104743;1257;74697;-55
2023/12/24 06:52:12;;;;;;;2.60;0.80;;;;;;;0.23;100.00;98820.83;104877;1257;60544;-56
2023/12/24 06:54:40;;;;;;;3.30;1.20;;;;;;;0.26;100.00;98825.34;104781;1257;62544;-55
2023/12/24 06:57:09;;;;;;;1.70;0.80;;;;;;;0.26;100.00;98824.83;104895;1257;75654;-55
2023/12/24 06:59:37;;;;;;;2.80;0.90;;;;;;;0.25;100.00;98829.63;104821;1258;69362;-55
2023/12/24 07:02:06;;;;;;;2.70;0.80;;;;;;;0.23;100.00;98829.83;104788;1256;75496;-55
2023/12/24 07:04:33;;;;;;;1.80;0.80;;;;;;;0.22;100.00;98834.44;104850;1256;60781;-54
2023/12/24 07:07:03;;;;;;;1.90;0.80;;;;;;;0.20;100.00;98836.42;106045;1256;61251;-55
2023/12/24 07:09:36;;;;;;;1.80;0.60;;;;;;;0.18;100.00;98837.69;104884;1255;74573;-54
2023/12/24 07:12:08;;;;;;;6.00;0.60;;;;;;;0.19;100.00;98845.09;105091;1256;66657;-55
2023/12/24 07:14:37;;;;;;;3.80;0.80;;;;;;;0.21;100.00;98844.35;105449;1260;74729;-55
2023/12/24 07:17:09;;;;;;;2.60;0.70;;;;;;;0.24;100.00;98847.28;105595;1256;62417;-56
2023/12/24 07:19:38;;;;;;;1.60;0.60;;;;;;;0.28;100.00;98850.02;105396;1257;61070;-55
2023/12/24 07:22:06;;;;;;;1.30;0.70;;;;;;;0.32;100.00;98858.05;105218;1256;74501;-55
2023/12/24 07:24:34;;;;;;;1.40;0.80;;;;;;;0.32;100.00;98860.88;104688;1259;67355;-55
2023/12/24 07:27:02;;;;;;;2.50;1.00;;;;;;;0.32;100.00;98862.10;104712;1257;71505;-54
2023/12/24 07:29:32;;;;;;;2.50;0.80;;;;;;;0.31;100.00;98865.84;104939;1256;60504;-55
2023/12/24 07:32:00;;;;;;;1.30;0.70;;;;;;;0.30;100.00;98867.27;104565;1256;60620;-54
2023/12/24 07:34:28;;;;;;;8.10;0.70;;;;;;;0.27;100.00;98867.33;108599;1256;74102;-55
2023/12/24 07:36:57;;;;;;;2.10;0.60;;;;;;;0.25;100.00;98869.68;104681;1262;66259;-54
2023/12/24 07:39:24;;;;;;;4.10;0.70;;;;;;;0.25;100.00;98878.33;104413;1256;74756;-55
2023/12/24 07:41:55;;;;;;;3.70;0.80;;;;;;;0.23;100.00;98875.52;104827;1256;60613;-54
2023/12/24 07:44:23;;;;;;;1.80;0.60;;;;;;;0.24;100.00;98879.40;105011;1260;60557;-54
2023/12/24 07:46:52;;;;;;;2.60;0.60;;;;;;;0.24;100.00;98877.81;104588;1256;76144;-55
2023/12/24 07:49:19;;;;;;;2.90;0.70;;;;;;;0.25;100.00;98882.21;104595;1257;68421;-55
2023/12/24 07:51:48;;;;;;;4.10;0.70;;;;;;;0.25;100.00;98883.97;104998;1256;74873;-55
2023/12/24 07:54:15;;;;;;;2.20;0.60;;;;;;;0.24;100.00;98880.29;104613;1254;60811;-55
2023/12/24 07:56:43;;;;;;;1.80;0.70;;;;;;;0.22;100.00;98887.02;104501;1256;62163;-54
2023/12/24 07:59:11;;;;;;;1.90;0.60;;;;;;;0.20;100.00;98890.42;104550;1256;75831;-55
2023/12/24 08:01:39;;;;;;;1.90;0.60;;;;;;;0.19;100.00;98891.48;105009;1256;67654;-55
2023/12/24 08:04:07;;;;;;;1.40;0.60;;;;;;;0.20;100.00;98895.70;104712;1260;74452;-55
2023/12/24 08:06:35;;;;;;;3.10;0.60;;;;;;;0.22;100.00;98899.20;104552;1260;61142;-55
2023/12/24 08:09:03;;;;;;;1.20;0.50;;;;;;;0.22;100.00;98900.25;106853;1256;60352;-55
2023/12/24 08:11:30;;;;;;;1.50;0.50;;;;;;;0.24;100.00;98897.75;104825;1256;72413;-55
2023/12/24 08:13:57;;;;;;;3.20;0.60;;;;;;;0.26;100.00;98900.53;104838;1257;66249;-53
2023/12/24 08:16:24;;;;;;;3.00;0.70;;;;;;;0.28;100.00;98902.23;104881;1260;70181;-55
2023/12/24 08:18:52;;;;;;;1.20;0.80;;;;;;;0.29;100.00;98907.52;104690;1261;60932;-54
2023/12/24 08:21:19;;;;;;;2.00;0.60;;;;;;;0.29;100.00;98911.05;108922;1254;60002;-55
2023/12/24 08:23:48;;;;;;;4.30;0.50;;;;;;;0.27;100.00;98911.61;108914;1255;73930;-55
2023/12/24 08:26:17;;;;;;;3.30;0.50;;;;;;;0.28;100.00;98913.54;108754;1256;66917;-55
2023/12/24 08:28:44;;;;;;;0.80;0.50;;;;;;;0.32;100.00;98921.42;109040;1256;72711;-55
2023/12/24 08:31:13;;;;;;;1.10;0.50;;;;;;;0.36;100.00;98923.77;108856;1256;58768;-55
2023/12/24 08:33:40;;;;;;;1.30;0.60;;;;;;;0.41;100.00;98930.76;108724;1256;61795;-55
2023/12/24 08:36:08;;;;;;;2.00;0.50;;;;;;;0.44;100.00;98935.43;105981;1256;73693;-53
2023/12/24 08:38:35;;;;;;;3.50;0.60;;;;;;;0.48;100.00;98939.43;104457;1256;67258;-54
2023/12/24 08:41:03;;;;;;;3.70;0.60;;;;;;;0.50;100.00;98936.23;104667;1256;72003;-53
2023/12/24 08:43:31;;;;;;;0.90;0.60;;;;;;;0.50;100.00;98934.98;104706;1257;60402;-53
2023/12/24 08:46:03;;;;;;;2.20;0.60;;;;;;;0.47;100.00;98932.57;104698;1256;60460;-54
2023/12/24 08:48:31;;;;;;;2.10;0.60;;;;;;;0.44;100.00;98938.08;104680;1256;75904;-53
2023/12/24 08:51:01;;;;;;;1.90;0.40;;;;;;;0.43;100.00;98940.41;104608;1260;66768;-54
2023/12/24 08:53:28;;;;;;;2.90;0.70;;;;;;;0.42;100.00;98946.10;104636;1256;71408;-54
2023/12/24 08:55:56;;;;;;;0.90;0.50;;;;;;;0.41;100.00;98942.39;105003;1255;60576;-52
2023/12/24 08:58:23;;;;;;;1.80;0.40;;;;;;;0.44;100.00;98945.33;104673;1254;60514;-52
2023/12/24 09:00:50;;;;;;;2.20;0.90;;;;;;;0.44;100.00;98940.55;104683;1260;73835;-53
2023/12/24 09:03:18;;;;;;;0.90;0.50;;;;;;;0.46;100.00;98946.35;104749;1260;66407;-54
2023/12/24 09:05:45;;;;;;;2.40;0.50;;;;;;;0.45;100.00;98936.66;104318;1257;71232;-53
2023/12/24 09:08:13;;;;;;;1.30;0.60;;;;;;;0.43;100.00;98940.05;105639;1256;60303;-52
2023/12/24 09:10:44;;;;;;;3.20;0.50;;;;;;;0.43;100.00;98939.54;104656;1256;60496;-53
2023/12/24 09:13:11;;;;;;;3.50;0.60;;;;;;;0.42;100.00;98943.63;104776;1255;74096;-53
2023/12/24 09:15:39;;;;;;;1.70;0.60;;;;;;;0.42;100.00;98944.16;104690;1256;65759;-54
2023/12/24 09:18:07;;;;;;;1.70;0.50;;;;;;;0.44;100.00;98944.98;104466;1256;71594;-54
2023/12/24 09:20:35;;;;;;;4.20;0.80;;;;;;;0.47;100.00;98948.80;104775;1256;62643;-53
2023/12/24 09:23:02;;;;;;;1.70;0.50;;;;;;;0.52;100.00;98951.52;106012;1256;60637;-53
2023/12/24 09:25:30;;;;;;;1.50;0.40;;;;;;;0.55;100.00;98955.70;104937;1256;74866;-53
2023/12/24 09:27:57;;;;;;;2.10;0.50;;;;;;;0.60;100.00;98962.83;104861;1260;65851;-52
2023/12/24 09:30:25;;;;;;;1.50;0.50;;;;;;;0.65;100.00;98959.19;104677;1256;72436;-53
2023/12/24 09:32:52;;;;;;;0.80;0.40;;;;;;;0.68;100.00;98974.30;104590;1261;61289;-53
2023/12/24 09:35:20;;;;;;;1.10;0.50;;;;;;;0.68;100.00;98976.24;104722;1259;60419;-53
2023/12/24 09:37:47;;;;;;;1.30;0.60;;;;;;;0.67;100.00;98971.17;104566;1255;72655;-53
2023/12/24 09:40:17;;;;;;;0.80;0.50;;;;;;;0.64;100.00;98973.69;104715;1256;65969;-53
2023/12/24 09:42:44;;;;;;;1.90;0.40;;;;;;;0.62;100.00;98973.73;104652;1256;71488;-53
2023/12/24 09:45:12;;;;;;;1.10;0.40;;;;;;;0.62;100.00;98975.85;104628;1256;61482;-54
2023/12/24 09:47:40;;;;;;;0.80;0.40;;;;;;;0.62;100.00;98978.32;104767;1259;60402;-53
2023/12/24 09:50:08;;;;;;;1.30;0.60;;;;;;;0.61;100.00;98979.75;104360;1256;72717;-53
2023/12/24 09:52:35;;;;;;;2.50;0.60;;;;;;;0.60;100.00;98979.77;104701;1256;67553;-53
2023/12/24 09:55:03;;;;;;;0.90;0.50;;;;;;;0.60;100.00;98981.00;104757;1259;73083;-53
2023/12/24 09:57:30;;;;;;;2.40;0.80;;;;;;;0.60;100.00;98980.81;104744;1256;60537;-54
2023/12/24 09:59:57;;;;;;;1.30;0.50;;;;;;;0.61;100.00;98987.53;104900;1260;60595;-54
2023/12/24 10:02:24;;;;;;;1.30;0.60;;;;;;;0.58;100.00;98980.01;104774;1254;73787;-54
2023/12/24 10:04:52;;;;;;;1.70;0.60;;;;;;;0.54;100.00;98972.48;104495;1255;65709;-54
2023/12/24 10:07:19;;;;;;;1.10;0.50;;;;;;;0.52;100.00;98968.81;104670;1257;72760;-54
2023/12/24 10:09:48;;;;;;;2.70;0.60;;;;;;;0.52;100.00;98973.92;104775;1260;60756;-54
2023/12/24 10:12:15;;;;;;;3.60;0.50;;;;;;;0.52;100.00;98972.68;104723;1260;60362;-54
2023/12/24 10:14:57;;;;;;;1.30;0.60;;;;;;;0.55;100.00;98970.88;104798;1257;74592;-54
2023/12/24 10:17:29;;;;;;;4.00;0.60;;;;;;;0.60;100.00;98984.54;104927;1260;67720;-54
2023/12/24 10:19:57;;;;;;;2.30;0.70;;;;;;;0.65;100.00;98984.44;104618;1257;72748;-54
2023/12/24 10:22:24;;;;;;;3.60;0.70;;;;;;;0.70;100.00;98982.73;104750;1261;61202;-53
2023/12/24 10:25:05;;;;;;;3.30;0.70;;;;;;;0.73;100.00;98979.52;104753;1255;60676;-53
2023/12/24 10:27:33;;;;;;;2.90;0.60;;;;;;;0.75;100.00;98986.02;104742;1256;72581;-53
2023/12/24 10:30:13;;;;;;;1.90;0.70;;;;;;;0.79;100.00;98985.91;105419;1254;66385;-52
2023/12/24 10:32:42;;;;;;;1.10;0.40;;;;;;;0.83;100.00;98993.80;105314;1256;71451;-53
2023/12/24 10:35:10;;;;;;;4.00;0.60;;;;;;;0.86;100.00;98995.64;104480;1256;62175;-51
2023/12/24 10:37:37;;;;;;;1.00;0.50;;;;;;;0.85;100.00;98997.79;105665;1256;60556;-53
2023/12/24 10:40:09;;;;;;;1.20;0.50;;;;;;;0.84;100.00;99007.73;105904;1257;73953;-54
2023/12/24 10:42:37;;;;;;;1.80;0.50;;;;;;;0.83;100.00;99010.39;104923;1256;66031;-53
2023/12/24 10:45:05;;;;;;;2.40;0.50;;;;;;;0.82;100.00;99008.12;108742;1255;72785;-55
2023/12/24 10:47:34;;;;;;;1.20;0.50;;;;;;;0.82;100.00;99003.70;106123;1256;61142;-54
2023/12/24 10:50:03;;;;;;;0.80;0.50;;;;;;;0.84;100.00;99009.48;105854;1260;60445;-53
2023/12/24 10:52:31;;;;;;;1.30;0.40;;;;;;;0.86;100.00;99015.25;104948;1257;72982;-51
2023/12/24 10:54:59;;;;;;;3.10;0.50;;;;;;;0.89;100.00;99018.73;104900;1257;66161;-53
2023/12/24 10:57:37;;;;;;;1.80;0.50;;;;;;;0.92;100.00;99024.84;105177;1257;70787;-54
2023/12/24 11:00:10;;;;;;;3.20;0.80;;;;;;;0.95;100.00;99031.67;105650;1260;62014;-55
2023/12/24 11:02:46;;;;;;;0.90;0.60;;;;;;;0.95;100.00;99033.80;108749;1256;59609;-51
2023/12/24 11:05:43;;;;;;;1.30;0.70;;;;;;;0.95;100.00;99040.16;108775;1255;75243;-52
2023/12/24 11:08:20;;;;;;;2.10;0.60;;;;;;;0.92;100.00;99048.36;108787;1255;67191;-54
2023/12/24 11:11:06;;;;;;;1.30;0.60;;;;;;;0.89;100.00;99048.59;108836;1255;73622;-54
2023/12/24 11:13:36;;;;;;;4.40;1.10;;;;;;;0.87;100.00;99059.03;104864;1256;60358;-55
2023/12/24 11:16:09;;;;;;;1.50;0.60;;;;;;;0.86;100.00;99055.88;105054;1258;62193;-52
2023/12/24 11:18:44;;;;;;;1.10;0.50;;;;;;;0.85;100.00;99062.44;108834;1254;72135;-53
2023/12/24 11:21:15;;;;;;;2.10;0.50;;;;;;;0.84;100.00;99061.58;108838;1256;68860;-54
2023/12/24 11:24:10;;;;;;;1.40;0.50;;;;;;;0.86;100.00;99066.47;107871;1256;72755;-55
2023/12/24 11:26:38;;;;;;;1.00;0.50;;;;;;;0.90;100.00;99078.95;104585;1260;60535;-52
2023/12/24 11:29:40;;;;;;;2.00;0.60;;;;;;;0.94;100.00;99074.27;104578;1259;60818;-56
2023/12/24 11:32:26;;;;;;;2.00;0.70;;;;;;;0.94;100.00;99087.15;108823;1255;72659;-54